Twelve Books – Rapture, Antichrist, False Prophet, End Time Signs, Bible Prophecy, Nando

End Times Bible Prophecy News and Articles

Archive for the ‘Iran-Elam’ Category

August 18, 2014 Major earthquakes shaken Elam in Iran. Prophecy of Jeremiah 49: 34-39

The area of Iran where the series of major earthquakes occurred was called Elam in ancient times. In the map linked below with the earthquakes this area is known as Ilam.

The book Nuclear Showdown in Iran revealing the ancient prophecy of Elam by Bill Salus covers an ancient prophecy on Elam that the prophet Jeremiah 49:34-39 spoke of to occur at the end of times.

The prophecy speaks of the destruction of Elam by the sword that results in a complete devastation of this area. Bill Salus suggests that this destruction could be helped by major earthquakes that could affect the Bushner nuclear plant located near the swarm of earthquakes.

This is not the event that could affect the nuclear plant suggested in prophecy but it sure could be a warning God sends to Iran about the displeasure of their actions and intentions concerning Israel and the Christian persecution in Iran.

Nando

http://earthquake.usgs.gov/earthquakes/map/#{%22feed%22%3A%227day_m25%22%2C%22search%22%3Anull%2C%22sort%22%3A%22newest%22%2C%22basemap%22%3A%22terrain%22%2C%22autoUpdate%22%3Atrue%2C%22restrictListToMap%22%3Atrue%2C%22timeZone%22%3A%22local%22%2C%22mapposition%22%3A[[29.668962525992505%2C-315.8349609375]%2C[33.660353121928814%2C-307.3974609375]]%2C%22overlays%22%3A{%22plates%22%3Atrue%2C%22faults%22%3Afalse%2C%22ushazard%22%3Afalse}%2C%22viewModes%22%3A{%22map%22%3Atrue%2C%22list%22%3Atrue%2C%22settings%22%3Afalse%2C%22help%22%3Afalse}}

Nando

The Judgment on Elam

34The word of the LORD that came to Jeremiah the prophet against Elam in the beginning of the reign of Zedekiah king of Judah, saying,

35Thus saith the LORD of hosts; Behold, I will break the bow of Elam, the chief of their might.

36And upon Elam will I bring the four winds from the four quarters of heaven, and will scatter them toward all those winds; and there shall be no nation whither the outcasts of Elam shall not come.

37For I will cause Elam to be dismayed before their enemies, and before them that seek their life: and I will bring evil upon them, even my fierce anger, saith the LORD; and I will send the sword after them, till I have consumed them:

38And I will set my throne in Elam, and will destroy from thence the king and the princes, saith the LORD.

39But it shall come to pass in the latter days, that I will bring again the captivity of Elam, saith the LORD.

Nando end

Advertisements

Earthquakes in Iran-Elan a warning from God? May 11, 2013

Is Jesus Christ telling Iran to change course in their pursuit of nuclear weapons and their policy of destruction of Israel through the increase earthquake activity of the last 3 days?

Nando

http://earthquake.usgs.gov/earthquakes/map/

7 Days, Magnitude 2.5+Updated: 2013-05-11 16:11:38221 earthquakes

27 earthquakes in map area

  1. 4.4 18km NNE of `Alaqahdari-ye Kiran wa Munjan, Afghanistan 2013-05-11 10:34:23-04:00 103.3 km deep
  2. 4.3 73km SE of Minab, Iran 2013-05-11 06:25:36-04:00 27.0 km deep
  3. 4.6 86km SE of Minab, Iran 2013-05-11 06:03:05-04:00 24.7 km deep
  4. 5.0 82km ESE of Minab, Iran 2013-05-11 04:42:38-04:00 22.2 km deep
  5. 4.3 104km ESE of Minab, Iran 2013-05-11 01:59:39-04:00 10.0 km deep
  6. 4.3 89km SE of Minab, Iran 2013-05-11 01:45:33-04:00 24.7 km deep
  7. 4.4 85km SE of Minab, Iran 2013-05-11 01:34:16-04:00 25.0 km deep
  8. 4.0 11km E of Nurabad, Iran 2013-05-11 01:10:05-04:00 11.0 km deep
  9. 4.7 5km NW of Sabratah, Libya 2013-05-11 00:42:39-04:00 14.8 km deep
  10. 4.7 79km ESE of Minab, Iran 2013-05-11 00:09:32-04:00 25.0 km deep
  11. 4.4 51km ESE of Minab, Iran 2013-05-10 23:58:18-04:00 30.0 km deep
  12. 5.0 94km ESE of Minab, Iran 2013-05-10 23:41:31-04:00 30.2 km deep
  13. 4.7 80km SE of Minab, Iran 2013-05-10 23:17:24-04:00 25.6 km deep
  14. 5.3 99km ESE of Minab, Iran 2013-05-10 23:09:53-04:00 27.3 km deep
  15. 4.8 79km ESE of Minab, Iran 2013-05-10 23:03:30-04:00 23.8 km deep
  16. 4.6 95km SE of Minab, Iran 2013-05-10 22:50:02-04:00 25.8 km deep
  17. 4.5 80km ESE of Minab, Iran 2013-05-10 22:32:45-04:00 26.4 km deep
  18. 4.6 96km ESE of Minab, Iran 2013-05-10 22:29:46-04:00 35.0 km deep
  19. 6.0 89km ESE of Minab, Iran 2013-05-10 22:08:11-04:00 14.0 km deep
  20. 3.4 1km NE of Amantea, Italy 2013-05-09 16:41:23-04:00 18.5 km deep
  21. 4.5 114km NNW of Panjgur, Pakistan 2013-05-09 12:24:02-04:00 11.5 km deep
  22. 4.9 80km ESE of Minab, Iran 2013-05-09 04:01:34-04:00 25.7 km deep
  23. 4.2 135km NE of Ardakan, Iran 2013-05-07 16:22:54-04:00 35.2 km deep
  24. 4.1 35km N of Vanj, Tajikistan 2013-05-07 13:25:50-04:00 39.6 km deep
  25. 4.4 69km SE of Borazjan, Iran 2013-05-06 21:47:04-04:00 10.1 km deep
  26. 5.0 91km WSW of Firuzabad, Iran 2013-05-05 22:28:03-04:00 10.0 km deep
  27. 4.9 134km SSE of Burum, Yemen 2013-05-05 04:20:37-04:00 10.1 km deep

Nando end

Earthquakes one of the many weapons in the hands of Jesus. April 20, 2013

When Jesus was asked about the end times timing He answered that among the many signs there will be earthquakes in diverse places and compared them to birth pangs in a woman. This implies an increase in frequency and intensity. Please observe that both parameters are being fulfilled in this last two years. Iran had three big ones in a two week frame and Russia and China in this last week. The arrows in the Lord’s arsenal are of many types and He will use them selectively to punish those who He considers their enemies.

Nando

http://earthquake.usgs.gov/earthquakes/recenteqsww/Quakes/quakes_all.php

Update time = Sat Apr 20 16:20:46 UTC 2013

MAG UTC DATE-TIME
y/m/d h:m:s
LAT
deg
LON
deg
DEPTH
km
 Region
MAP  4.4 2013/04/20 15:18:23   42.793   -1.899 25.4  PYRENEES
MAP  2.5 2013/04/20 14:06:17   19.293  -155.379 3.7  ISLAND OF HAWAII, HAWAII
MAP  4.6   2013/04/20 13:34:29   50.047   157.216 10.0  KURIL ISLANDS
MAP  5.3   2013/04/20 13:18:09   50.018   157.413 9.6  KURIL ISLANDS
MAP  6.1   2013/04/20 13:12:51   50.140   157.225 20.2  KURIL ISLANDS
MAP  4.8   2013/04/20 11:12:49   30.370   103.108 10.0  EASTERN SICHUAN, CHINA
MAP  4.5   2013/04/20 10:59:00   30.416   103.170 10.0  EASTERN SICHUAN, CHINA
MAP  4.2 2013/04/20 10:19:43   12.640   -88.765 35.2  OFFSHORE EL SALVADOR
MAP  4.4 2013/04/20 09:45:13   30.457   103.111 10.1  EASTERN SICHUAN, CHINA
MAP  4.4 2013/04/20 09:33:37   12.281   -88.708 35.2  OFF THE COAST OF EL SALVADOR
MAP  4.5   2013/04/20 08:55:45   12.571   -88.700 35.2  OFFSHORE EL SALVADOR
MAP  4.6   2013/04/20 07:47:01   -3.355   100.728 39.4  KEPULAUAN MENTAWAI REGION, INDONESIA
MAP  4.6   2013/04/20 07:18:33   30.384   103.054 10.1  EASTERN SICHUAN, CHINA
MAP  3.0 2013/04/20 06:47:16   36.982  -104.889 5.0  NEW MEXICO
MAP  4.6   2013/04/20 06:35:54   -5.309   103.557 69.2  SOUTHERN SUMATRA, INDONESIA
MAP  2.6 2013/04/20 06:16:11   59.421  -154.292 201.6  SOUTHERN ALASKA
MAP  4.3 2013/04/20 05:19:43   16.119   -98.404 18.6  OFFSHORE OAXACA, MEXICO
MAP  2.7 2013/04/20 05:18:38   60.631  -152.153 86.7  SOUTHERN ALASKA
MAP  5.4   2013/04/20 05:11:57  -54.765   1.179 8.6  BOUVET ISLAND REGION
MAP  4.6   2013/04/20 05:05:12   16.159   -98.315 9.7  OFFSHORE OAXACA, MEXICO
MAP  5.7   2013/04/20 04:51:10   -6.314   130.156 86.8  BANDA SEA
MAP  4.5   2013/04/20 04:36:29   24.802   122.435 125.9  TAIWAN REGION
MAP  5.6   2013/04/20 03:42:03   -5.037   152.142 72.6  NEW BRITAIN REGION, PAPUA NEW GUINEA
MAP  5.1   2013/04/20 03:34:16   30.181   102.928 12.3  WESTERN SICHUAN, CHINA
MAP  4.6   2013/04/20 02:38:36   30.260   103.129 12.1  EASTERN SICHUAN, CHINA
MAP  4.5   2013/04/20 02:19:05   30.297   103.040 12.4  EASTERN SICHUAN, CHINA
MAP  5.1   2013/04/20 01:37:28   30.283   103.001 12.0  EASTERN SICHUAN, CHINA
MAP  4.6   2013/04/20 01:26:03   30.503   103.037 12.4  EASTERN SICHUAN, CHINA
MAP  4.8   2013/04/20 01:20:10   30.294   103.121 11.9  EASTERN SICHUAN, CHINA
MAP  5.0   2013/04/20 01:11:51   30.218   102.876 10.0  WESTERN SICHUAN, CHINA
MAP  5.0   2013/04/20 01:11:51   30.218   102.876 10.0  WESTERN SICHUAN, CHINA
MAP  4.7   2013/04/20 01:02:57   30.281   103.002 10.3  EASTERN SICHUAN, CHINA
MAP  2.8 2013/04/20 00:45:54   61.025  -152.258 134.3  SOUTHERN ALASKA
MAP  4.8   2013/04/20 00:37:12   30.274   103.044 10.1  EASTERN SICHUAN, CHINA
MAP  4.8   2013/04/20 00:31:36   30.352   103.142 10.0  EASTERN SICHUAN, CHINA
MAP  3.1 2013/04/20 00:30:39   37.460  -121.773 8.2  SAN FRANCISCO BAY AREA, CALIFORNIA
MAP  5.0   2013/04/20 00:30:29   1.496   30.794 23.2  LAKE ALBERT REGION, UGANDA
MAP  6.6   2013/04/20 00:02:47   30.284   102.956 12.3  WESTERN SICHUAN, CHINA

MAG UTC DATE-TIME
y/m/d h:m:s
LAT
deg
LON
deg
DEPTH
km
 Region
MAP  2.9 2013/04/19 23:14:39   59.604  -140.073 12.4  SOUTHEASTERN ALASKA
MAP  4.0 2013/04/19 22:04:01   -0.956   101.635 268.5  SOUTHERN SUMATRA, INDONESIA
MAP  5.0   2013/04/19 21:41:05   27.060   53.860 10.0  SOUTHERN IRAN
MAP  4.7   2013/04/19 21:22:33   49.940   157.608 38.8  EAST OF THE KURIL ISLANDS
MAP  4.2 2013/04/19 20:22:40   33.275   51.654 15.5  CENTRAL IRAN
MAP  4.6   2013/04/19 20:12:37   49.897   157.723 10.1  EAST OF THE KURIL ISLANDS
MAP  3.3 2013/04/19 20:00:19   62.667  -149.266 60.9  CENTRAL ALASKA
MAP  5.0   2013/04/19 19:59:28   39.736   143.290 22.2  OFF THE EAST COAST OF HONSHU, JAPAN
MAP  6.0   2013/04/19 19:58:41   49.938   157.639 18.6  EAST OF THE KURIL ISLANDS
MAP  4.1 2013/04/19 19:43:46   52.009  -171.119 30.9  FOX ISLANDS, ALEUTIAN ISLANDS, ALASKA
MAP  2.6 2013/04/19 18:40:03   35.601   -97.241 5.0  OKLAHOMA
MAP  4.4 2013/04/19 18:33:01   28.561   51.594 40.1  SOUTHERN IRAN
MAP  5.7   2013/04/19 17:51:42  -11.944   121.662 18.9  SOUTH OF TIMOR
MAP  5.2   2013/04/19 17:25:15  -14.929   166.883 31.4  VANUATU
MAP  2.6 2013/04/19 14:53:02   18.663   -66.579 68.0  PUERTO RICO REGION
MAP  4.6   2013/04/19 14:46:45   34.697   73.243 19.7  PAKISTAN
MAP  2.5 2013/04/19 14:21:34   45.452  -122.816 25.5  PORTLAND URBAN AREA, OREGON
MAP  4.5   2013/04/19 14:11:14   35.779   140.886 55.0  NEAR THE EAST COAST OF HONSHU, JAPAN
MAP  4.8   2013/04/19 12:00:45   -7.290   109.873 10.0  JAVA, INDONESIA
MAP  4.6   2013/04/19 10:00:37  -17.602  -174.515 66.7  TONGA
MAP  3.1 2013/04/19 09:24:18   59.127  -152.325 58.0  SOUTHERN ALASKA
MAP  4.8   2013/04/19 08:57:03  -20.927  -178.780 575.8  FIJI REGION
MAP  4.5   2013/04/19 08:46:06   39.907   142.457 33.8  NEAR THE EAST COAST OF HONSHU, JAPAN
MAP  3.2 2013/04/19 06:25:35   60.675  -152.107 105.0  SOUTHERN ALASKA
MAP  2.8 2013/04/19 06:14:32   39.998  -111.798 3.4  UTAH
MAP  2.5 2013/04/19 05:52:25   38.557  -119.622 10.0  NORTHERN CALIFORNIA
MAP  4.6   2013/04/19 04:04:35   24.808   123.029 13.8  SOUTHWESTERN RYUKYU ISLANDS, JAPAN
MAP  3.1 2013/04/19 03:44:40   62.847  -151.144 114.1  CENTRAL ALASKA
MAP  5.7   2013/04/19 03:15:55   45.700   151.231 120.3  KURIL ISLANDS
MAP  7.2   2013/04/19 03:05:54   46.182   150.796 122.3  KURIL ISLANDS

_______________________________________________________________

http://www.biblegateway.com/passage/?search=Matthew+24&version=NIV

Matthew 24

New International Version (NIV)

The Destruction of the Temple and Signs of the End Times

24 Jesus left the temple and was walking away when his disciples came up to him to call his attention to its buildings. “Do you see all these things?” he asked. “Truly I tell you, not one stone here will be left on another; every one will be thrown down.”

As Jesus was sitting on the Mount of Olives, the disciples came to him privately. “Tell us,” they said, “when will this happen, and what will be the sign of your coming and of the end of the age?”

Jesus answered: “Watch out that no one deceives you. For many will come in my name, claiming, ‘I am the Messiah,’ and will deceive many. You will hear of wars and rumors of wars, but see to it that you are not alarmed. Such things must happen, but the end is still to come. Nation will rise against nation, and kingdom against kingdom. There will be famines and earthquakes in various places. All these are the beginning of birth pains.

“Then you will be handed over to be persecuted and put to death, and you will be hated by all nations because of me. 10 At that time many will turn away from the faith and will betray and hate each other, 11 and many false prophets will appear and deceive many people. 12 Because of the increase of wickedness, the love of most will grow cold, 13 but the one who stands firm to the end will be saved. 14 And this gospel of the kingdom will be preached in the whole world as a testimony to all nations, and then the end will come.

Nando end

Irans Earthquake of 7.8 is huge! A fulfillment of Jeremiah 49:34-39? April 16, 2013

A few days ago I wrote an article in this blog about the earthquake that hit Iran near the nuclear plant of Busherhr. I had said that in the book Psalm 83 by Bill Salus on page 273 the author makes mention that God may choose to bring the destruction of the Prophet Jeremiah 49: 34-39 through earthquakes and a few hours ago Iran experiences the second great earthquake in a week. These have occurred on the South, East and the West of Iran. The original article I used the Google translator to place it in Persian to serve as a warning to the people of Iran and those of the middle East that God will not allow for the destruction of Israel and will curse those who curse Israel.

Nando

Image: People stand outside of their office buildings following an earthquake tremor in Karachi, Pakistan, on Tuesday (© Athar Hussain/Reuters)

Nando end